PWSweather.com
Personal Weather Stations
Station Observations
BLACKWELL
Blackwell, AlfretonGB DE55

BlackwellAlfretonGB DE55

Lat: 53.12076, Lon: -1.354978

Elevation: 410

Station Type: Vantage Pro

High Low Average
Temperature 40.6°F4.8°C 36.7°F2.6°C 38.9°F3.8°C
Dew Point 39.0°F3.9°C 35.4°F1.9°C 37.3°F2.9°C
Winds 3.0 mph 4.8 kmh Calm Calm 1.0 mph E1.6 kmh E
Wind Gusts 8.0 mph12.9 kmh 1.0 mph1.6 kmh 4.0 mph6.4 kmh
Humidity 95% 90% 94%
Pressure 30.08 in1018.6 mb 29.75 in1007.5 mb -
Precipitation 0.26 in6.6 mm - -
Hour Temp Dew Point Humidity Winds Wind Gusts Pressure Precip Precip Rate Daily Precip Total
12:48 AM 39.6°F4.2°C 37.0°F2.8°C 91% 1.0 mph ENE1.6 kmh ENE 4.0 mph6.4 kmh 30.08 in1018.6 mb 0.02 in0.5 mm 0.03 in0.8 mm 0.02 in0.5 mm
01:48 AM 38.7°F3.7°C 36.7°F2.6°C 93% 1.0 mph NE1.6 kmh NE 3.0 mph4.8 kmh 30.06 in1017.9 mb 0.01 in0.3 mm 0.00 in0.0 mm 0.02 in0.5 mm
02:48 AM 38.5°F3.6°C 36.9°F2.7°C 94% Calm Calm 3.0 mph4.8 kmh 30.04 in1017.3 mb 0.00 in0.0 mm 0.00 in0.0 mm 0.02 in0.5 mm
03:48 AM 39.0°F3.9°C 37.6°F3.1°C 94% 2.0 mph NE3.2 kmh NE 8.0 mph12.9 kmh 30.02 in1016.6 mb 0.00 in0.0 mm 0.00 in0.0 mm 0.02 in0.5 mm
04:48 AM 38.7°F3.7°C 37.0°F2.8°C 94% 1.0 mph NE1.6 kmh NE 4.0 mph6.4 kmh 30.00 in1015.9 mb 0.01 in0.3 mm 0.00 in0.0 mm 0.03 in0.8 mm
05:48 AM 38.8°F3.8°C 37.2°F2.9°C 94% 1.0 mph NE1.6 kmh NE 3.0 mph4.8 kmh 29.99 in1015.6 mb 0.00 in0.0 mm 0.00 in0.0 mm 0.03 in0.8 mm
06:48 AM 38.5°F3.6°C 36.9°F2.7°C 94% Calm Calm 3.0 mph4.8 kmh 29.98 in1015.2 mb 0.00 in0.0 mm 0.00 in0.0 mm 0.03 in0.8 mm
07:48 AM 39.0°F3.9°C 37.2°F2.9°C 93% Calm Calm 3.0 mph4.8 kmh 29.97 in1014.9 mb 0.01 in0.3 mm 0.00 in0.0 mm 0.04 in1.0 mm
08:48 AM 39.6°F4.2°C 37.8°F3.2°C 93% 2.0 mph NE3.2 kmh NE 5.0 mph8.0 kmh 29.96 in1014.6 mb 0.00 in0.0 mm 0.00 in0.0 mm 0.04 in1.0 mm
09:48 AM 39.7°F4.3°C 38.3°F3.5°C 94% 1.0 mph NE1.6 kmh NE 5.0 mph8.0 kmh 29.95 in1014.2 mb 0.01 in0.3 mm 0.00 in0.0 mm 0.05 in1.3 mm
10:48 AM 40.6°F4.8°C 39.0°F3.9°C 94% 1.0 mph NE1.6 kmh NE 3.0 mph4.8 kmh 29.92 in1013.2 mb 0.02 in0.5 mm 0.00 in0.0 mm 0.06 in1.5 mm
11:48 AM 40.3°F4.6°C 38.7°F3.7°C 94% 1.0 mph NNE1.6 kmh NNE 7.0 mph11.3 kmh 29.88 in1011.9 mb 0.01 in0.3 mm 0.00 in0.0 mm 0.07 in1.8 mm
12:48 PM 39.9°F4.4°C 38.7°F3.7°C 95% 3.0 mph NE4.8 kmh NE 6.0 mph9.7 kmh 29.85 in1010.8 mb 0.02 in0.5 mm 0.00 in0.0 mm 0.09 in2.3 mm
01:48 PM 39.9°F4.4°C 38.7°F3.7°C 95% 2.0 mph ENE3.2 kmh ENE 5.0 mph8.0 kmh 29.83 in1010.2 mb 0.03 in0.8 mm 0.00 in0.0 mm 0.13 in3.3 mm
02:48 PM 39.9°F4.4°C 38.7°F3.7°C 95% 1.0 mph ENE1.6 kmh ENE 4.0 mph6.4 kmh 29.81 in1009.5 mb 0.02 in0.5 mm 0.00 in0.0 mm 0.15 in3.8 mm
03:48 PM 39.2°F4.0°C 37.9°F3.3°C 95% 1.0 mph ENE1.6 kmh ENE 5.0 mph8.0 kmh 29.81 in1009.5 mb 0.00 in0.0 mm 0.00 in0.0 mm 0.15 in3.8 mm
04:48 PM 38.8°F3.8°C 36.9°F2.7°C 93% 3.0 mph ENE4.8 kmh ENE 6.0 mph9.7 kmh 29.82 in1009.8 mb 0.00 in0.0 mm 0.00 in0.0 mm 0.15 in3.8 mm
05:48 PM 38.7°F3.7°C 36.0°F2.2°C 90% 1.0 mph NE1.6 kmh NE 4.0 mph6.4 kmh 29.83 in1010.2 mb 0.00 in0.0 mm 0.00 in0.0 mm 0.15 in3.8 mm
06:48 PM 38.5°F3.6°C 36.0°F2.2°C 91% Calm Calm 2.0 mph3.2 kmh 29.82 in1009.8 mb 0.00 in0.0 mm 0.00 in0.0 mm 0.15 in3.8 mm
07:48 PM 38.1°F3.4°C 36.3°F2.4°C 93% Calm Calm 5.0 mph8.0 kmh 29.81 in1009.5 mb 0.00 in0.0 mm 0.00 in0.0 mm 0.15 in3.8 mm
08:48 PM 38.3°F3.5°C 36.7°F2.6°C 94% Calm Calm 4.0 mph6.4 kmh 29.80 in1009.1 mb 0.00 in0.0 mm 0.00 in0.0 mm 0.15 in3.8 mm
09:48 PM 37.9°F3.3°C 36.7°F2.6°C 95% 2.0 mph NE3.2 kmh NE 5.0 mph8.0 kmh 29.77 in1008.1 mb 0.02 in0.5 mm 0.00 in0.0 mm 0.17 in4.3 mm
10:48 PM 37.9°F3.3°C 36.7°F2.6°C 95% 1.0 mph NE1.6 kmh NE 3.0 mph4.8 kmh 29.76 in1007.8 mb 0.04 in1.0 mm 0.00 in0.0 mm 0.21 in5.3 mm
11:48 PM 36.7°F2.6°C 35.4°F1.9°C 95% Calm Calm 1.0 mph1.6 kmh 29.75 in1007.5 mb 0.05 in1.3 mm 0.00 in0.0 mm 0.26 in6.6 mm